sensor_id;sensor_type;location;lat;lon;timestamp;temperature;humidity
62476;DHT22;50739;45.670;11.936;2023-05-21T00:03:20;19.76;71.23
62476;DHT22;50739;45.670;11.936;2023-05-21T00:08:25;19.89;70.84
62476;DHT22;50739;45.670;11.936;2023-05-21T00:13:27;19.85;70.94
62476;DHT22;50739;45.670;11.936;2023-05-21T00:18:30;19.82;70.92
62476;DHT22;50739;45.670;11.936;2023-05-21T00:23:35;19.80;71.10
62476;DHT22;50739;45.670;11.936;2023-05-21T00:28:39;19.73;71.28
62476;DHT22;50739;45.670;11.936;2023-05-21T00:33:42;19.69;71.30
62476;DHT22;50739;45.670;11.936;2023-05-21T00:38:45;19.68;71.38
62476;DHT22;50739;45.670;11.936;2023-05-21T00:43:48;19.66;71.07
62476;DHT22;50739;45.670;11.936;2023-05-21T00:48:51;19.57;71.25
62476;DHT22;50739;45.670;11.936;2023-05-21T00:53:55;19.59;71.26
62476;DHT22;50739;45.670;11.936;2023-05-21T00:58:58;19.55;71.34
62476;DHT22;50739;45.670;11.936;2023-05-21T01:04:05;19.59;71.07
62476;DHT22;50739;45.670;11.936;2023-05-21T01:09:09;19.54;71.32
62476;DHT22;50739;45.670;11.936;2023-05-21T01:14:12;19.57;71.03
62476;DHT22;50739;45.670;11.936;2023-05-21T01:19:17;19.48;71.37
62476;DHT22;50739;45.670;11.936;2023-05-21T01:24:21;19.52;71.28
62476;DHT22;50739;45.670;11.936;2023-05-21T01:29:24;19.55;71.04
62476;DHT22;50739;45.670;11.936;2023-05-21T01:34:30;19.55;71.20
62476;DHT22;50739;45.670;11.936;2023-05-21T01:39:37;19.47;71.29
62476;DHT22;50739;45.670;11.936;2023-05-21T01:44:41;19.51;71.20
62476;DHT22;50739;45.670;11.936;2023-05-21T01:49:45;19.52;71.27
62476;DHT22;50739;45.670;11.936;2023-05-21T01:54:48;19.44;71.67
62476;DHT22;50739;45.670;11.936;2023-05-21T01:59:51;19.47;71.45
62476;DHT22;50739;45.670;11.936;2023-05-21T02:04:54;19.44;71.34
62476;DHT22;50739;45.670;11.936;2023-05-21T02:09:58;19.42;71.27
62476;DHT22;50739;45.670;11.936;2023-05-21T02:15:00;19.44;71.28
62476;DHT22;50739;45.670;11.936;2023-05-21T02:20:05;19.41;71.30
62476;DHT22;50739;45.670;11.936;2023-05-21T02:25:14;19.38;70.79
62476;DHT22;50739;45.670;11.936;2023-05-21T02:30:18;19.42;70.87
62476;DHT22;50739;45.670;11.936;2023-05-21T02:35:20;19.42;70.51
62476;DHT22;50739;45.670;11.936;2023-05-21T02:40:24;19.45;70.34
62476;DHT22;50739;45.670;11.936;2023-05-21T02:45:28;19.44;70.39
62476;DHT22;50739;45.670;11.936;2023-05-21T02:50:31;19.45;70.27
62476;DHT22;50739;45.670;11.936;2023-05-21T02:55:34;19.42;70.32
62476;DHT22;50739;45.670;11.936;2023-05-21T03:00:37;19.35;70.59
62476;DHT22;50739;45.670;11.936;2023-05-21T03:05:39;19.30;70.73
62476;DHT22;50739;45.670;11.936;2023-05-21T03:10:43;19.30;70.82
62476;DHT22;50739;45.670;11.936;2023-05-21T03:15:47;19.36;70.55
62476;DHT22;50739;45.670;11.936;2023-05-21T03:20:50;19.35;70.38
62476;DHT22;50739;45.670;11.936;2023-05-21T03:25:53;19.47;69.88
62476;DHT22;50739;45.670;11.936;2023-05-21T03:30:56;19.45;69.79
62476;DHT22;50739;45.670;11.936;2023-05-21T03:35:58;19.41;70.15
62476;DHT22;50739;45.670;11.936;2023-05-21T03:41:02;19.45;69.78
62476;DHT22;50739;45.670;11.936;2023-05-21T03:46:04;19.39;70.13
62476;DHT22;50739;45.670;11.936;2023-05-21T03:51:06;19.45;69.76
62476;DHT22;50739;45.670;11.936;2023-05-21T03:56:10;19.49;69.48
62476;DHT22;50739;45.670;11.936;2023-05-21T04:01:13;19.52;69.23
62476;DHT22;50739;45.670;11.936;2023-05-21T04:06:15;19.62;68.92
62476;DHT22;50739;45.670;11.936;2023-05-21T04:11:20;19.70;68.76
62476;DHT22;50739;45.670;11.936;2023-05-21T04:16:22;19.63;69.15
62476;DHT22;50739;45.670;11.936;2023-05-21T04:21:24;19.66;69.19
62476;DHT22;50739;45.670;11.936;2023-05-21T04:26:28;19.82;68.73
62476;DHT22;50739;45.670;11.936;2023-05-21T04:31:34;19.86;68.68
62476;DHT22;50739;45.670;11.936;2023-05-21T04:36:36;19.80;69.17
62476;DHT22;50739;45.670;11.936;2023-05-21T04:41:40;19.89;68.92
62476;DHT22;50739;45.670;11.936;2023-05-21T04:46:42;19.90;69.06
62476;DHT22;50739;45.670;11.936;2023-05-21T04:51:45;20.06;68.86
62476;DHT22;50739;45.670;11.936;2023-05-21T04:56:50;20.00;69.27
62476;DHT22;50739;45.670;11.936;2023-05-21T05:01:52;20.07;69.77
62476;DHT22;50739;45.670;11.936;2023-05-21T05:06:55;19.98;70.23
62476;DHT22;50739;45.670;11.936;2023-05-21T05:11:59;20.14;69.45
62476;DHT22;50739;45.670;11.936;2023-05-21T05:17:01;20.07;69.71
62476;DHT22;50739;45.670;11.936;2023-05-21T05:22:04;20.09;69.67
62476;DHT22;50739;45.670;11.936;2023-05-21T05:27:08;20.09;69.61
62476;DHT22;50739;45.670;11.936;2023-05-21T05:32:10;20.24;69.13
62476;DHT22;50739;45.670;11.936;2023-05-21T05:37:13;20.12;69.61
62476;DHT22;50739;45.670;11.936;2023-05-21T05:42:17;20.16;69.67
62476;DHT22;50739;45.670;11.936;2023-05-21T05:47:20;20.18;69.70
62476;DHT22;50739;45.670;11.936;2023-05-21T05:52:22;20.28;69.86
62476;DHT22;50739;45.670;11.936;2023-05-21T05:57:26;20.42;70.02
62476;DHT22;50739;45.670;11.936;2023-05-21T06:02:28;20.49;69.84
62476;DHT22;50739;45.670;11.936;2023-05-21T06:07:31;20.68;69.49
62476;DHT22;50739;45.670;11.936;2023-05-21T06:12:34;20.88;68.44
62476;DHT22;50739;45.670;11.936;2023-05-21T06:17:37;20.92;68.85
62476;DHT22;50739;45.670;11.936;2023-05-21T06:22:39;20.92;68.29
62476;DHT22;50739;45.670;11.936;2023-05-21T06:27:43;20.92;68.86
62476;DHT22;50739;45.670;11.936;2023-05-21T06:32:45;20.98;68.94
62476;DHT22;50739;45.670;11.936;2023-05-21T06:37:47;21.00;69.10
62476;DHT22;50739;45.670;11.936;2023-05-21T06:42:52;21.00;68.74
62476;DHT22;50739;45.670;11.936;2023-05-21T06:47:56;21.22;67.92
62476;DHT22;50739;45.670;11.936;2023-05-21T06:52:59;21.27;67.79
62476;DHT22;50739;45.670;11.936;2023-05-21T06:58:03;21.38;67.46
62476;DHT22;50739;45.670;11.936;2023-05-21T07:03:06;21.55;66.71
62476;DHT22;50739;45.670;11.936;2023-05-21T07:08:08;21.64;66.47
62476;DHT22;50739;45.670;11.936;2023-05-21T07:13:12;21.72;66.07
62476;DHT22;50739;45.670;11.936;2023-05-21T07:18:14;21.95;64.83
62476;DHT22;50739;45.670;11.936;2023-05-21T07:23:17;22.12;64.51
62476;DHT22;50739;45.670;11.936;2023-05-21T07:28:22;22.36;64.32
62476;DHT22;50739;45.670;11.936;2023-05-21T07:33:24;22.61;62.73
62476;DHT22;50739;45.670;11.936;2023-05-21T07:38:27;22.79;62.17
62476;DHT22;50739;45.670;11.936;2023-05-21T07:43:31;22.88;63.08
62476;DHT22;50739;45.670;11.936;2023-05-21T07:48:34;23.03;63.84
62476;DHT22;50739;45.670;11.936;2023-05-21T07:53:36;23.33;62.01
62476;DHT22;50739;45.670;11.936;2023-05-21T07:58:40;23.57;60.82
62476;DHT22;50739;45.670;11.936;2023-05-21T08:03:45;23.61;61.41
62476;DHT22;50739;45.670;11.936;2023-05-21T08:08:48;23.84;60.06
62476;DHT22;50739;45.670;11.936;2023-05-21T08:13:52;24.12;57.96
62476;DHT22;50739;45.670;11.936;2023-05-21T08:18:54;24.39;54.95
62476;DHT22;50739;45.670;11.936;2023-05-21T08:23:56;24.43;55.43
62476;DHT22;50739;45.670;11.936;2023-05-21T08:29:01;24.52;54.18
62476;DHT22;50739;45.670;11.936;2023-05-21T08:34:04;24.66;52.73
62476;DHT22;50739;45.670;11.936;2023-05-21T08:39:06;24.71;52.34
62476;DHT22;50739;45.670;11.936;2023-05-21T08:44:11;24.76;52.29
62476;DHT22;50739;45.670;11.936;2023-05-21T08:49:16;24.91;50.83
62476;DHT22;50739;45.670;11.936;2023-05-21T08:54:19;25.08;51.72
62476;DHT22;50739;45.670;11.936;2023-05-21T08:59:23;25.15;49.80
62476;DHT22;50739;45.670;11.936;2023-05-21T09:04:26;25.10;48.52
62476;DHT22;50739;45.670;11.936;2023-05-21T09:09:32;25.31;48.92
62476;DHT22;50739;45.670;11.936;2023-05-21T09:14:36;25.35;48.32
62476;DHT22;50739;45.670;11.936;2023-05-21T09:25:13;25.56;49.49
62476;DHT22;50739;45.670;11.936;2023-05-21T09:30:17;25.70;48.18
62476;DHT22;50739;45.670;11.936;2023-05-21T09:35:20;25.87;47.40
62476;DHT22;50739;45.670;11.936;2023-05-21T09:40:22;25.80;47.23
62476;DHT22;50739;45.670;11.936;2023-05-21T09:45:27;25.87;47.48
62476;DHT22;50739;45.670;11.936;2023-05-21T09:50:29;25.96;47.93
62476;DHT22;50739;45.670;11.936;2023-05-21T09:55:35;25.96;49.05
62476;DHT22;50739;45.670;11.936;2023-05-21T10:00:38;26.01;47.06
62476;DHT22;50739;45.670;11.936;2023-05-21T10:05:41;26.13;47.94
62476;DHT22;50739;45.670;11.936;2023-05-21T10:10:44;26.14;48.90
62476;DHT22;50739;45.670;11.936;2023-05-21T10:15:56;26.18;47.31
62476;DHT22;50739;45.670;11.936;2023-05-21T10:21:01;26.32;48.48
62476;DHT22;50739;45.670;11.936;2023-05-21T10:26:04;26.49;47.41
62476;DHT22;50739;45.670;11.936;2023-05-21T10:31:10;26.44;47.89
62476;DHT22;50739;45.670;11.936;2023-05-21T10:36:15;26.56;47.38
62476;DHT22;50739;45.670;11.936;2023-05-21T10:41:19;26.65;47.19
62476;DHT22;50739;45.670;11.936;2023-05-21T10:46:40;26.65;46.71
62476;DHT22;50739;45.670;11.936;2023-05-21T10:51:53;26.75;47.39
62476;DHT22;50739;45.670;11.936;2023-05-21T10:57:06;26.73;47.56
62476;DHT22;50739;45.670;11.936;2023-05-21T11:02:14;26.89;47.59
62476;DHT22;50739;45.670;11.936;2023-05-21T11:07:22;26.79;46.13
62476;DHT22;50739;45.670;11.936;2023-05-21T11:12:24;26.78;46.95
62476;DHT22;50739;45.670;11.936;2023-05-21T11:17:38;26.99;45.69
62476;DHT22;50739;45.670;11.936;2023-05-21T11:22:41;26.94;45.66
62476;DHT22;50739;45.670;11.936;2023-05-21T11:27:46;27.07;46.72
62476;DHT22;50739;45.670;11.936;2023-05-21T11:33:20;26.99;47.42
62476;DHT22;50739;45.670;11.936;2023-05-21T11:38:22;26.97;43.87
62476;DHT22;50739;45.670;11.936;2023-05-21T11:43:25;27.14;45.99
62476;DHT22;50739;45.670;11.936;2023-05-21T11:48:29;27.14;45.80
62476;DHT22;50739;45.670;11.936;2023-05-21T11:53:32;27.21;45.48
62476;DHT22;50739;45.670;11.936;2023-05-21T11:58:35;27.13;44.20
62476;DHT22;50739;45.670;11.936;2023-05-21T12:03:38;27.13;45.46
62476;DHT22;50739;45.670;11.936;2023-05-21T12:08:41;27.24;45.55
62476;DHT22;50739;45.670;11.936;2023-05-21T12:13:43;27.26;45.38
62476;DHT22;50739;45.670;11.936;2023-05-21T12:18:47;27.15;45.82
62476;DHT22;50739;45.670;11.936;2023-05-21T12:23:49;27.38;45.67
62476;DHT22;50739;45.670;11.936;2023-05-21T12:28:52;27.55;44.62
62476;DHT22;50739;45.670;11.936;2023-05-21T12:33:56;27.76;44.97
62476;DHT22;50739;45.670;11.936;2023-05-21T12:38:58;27.62;43.24
62476;DHT22;50739;45.670;11.936;2023-05-21T12:44:01;27.76;42.73
62476;DHT22;50739;45.670;11.936;2023-05-21T12:49:06;27.92;44.20
62476;DHT22;50739;45.670;11.936;2023-05-21T12:54:12;28.12;42.68
62476;DHT22;50739;45.670;11.936;2023-05-21T12:59:14;28.33;41.86
62476;DHT22;50739;45.670;11.936;2023-05-21T13:04:19;28.52;42.35
62476;DHT22;50739;45.670;11.936;2023-05-21T13:09:22;28.78;42.72
62476;DHT22;50739;45.670;11.936;2023-05-21T13:14:24;29.05;41.72
62476;DHT22;50739;45.670;11.936;2023-05-21T13:19:28;29.20;41.27
62476;DHT22;50739;45.670;11.936;2023-05-21T13:24:30;29.34;41.64
62476;DHT22;50739;45.670;11.936;2023-05-21T13:29:32;29.30;41.84
62476;DHT22;50739;45.670;11.936;2023-05-21T13:34:39;29.15;40.59
62476;DHT22;50739;45.670;11.936;2023-05-21T13:39:41;29.10;41.36
62476;DHT22;50739;45.670;11.936;2023-05-21T13:44:44;29.50;41.79
62476;DHT22;50739;45.670;11.936;2023-05-21T13:49:48;29.54;41.44
62476;DHT22;50739;45.670;11.936;2023-05-21T13:54:50;28.58;42.53
62476;DHT22;50739;45.670;11.936;2023-05-21T13:59:53;28.17;43.60
62476;DHT22;50739;45.670;11.936;2023-05-21T14:04:57;27.81;44.53
62476;DHT22;50739;45.670;11.936;2023-05-21T14:09:59;27.61;45.71
62476;DHT22;50739;45.670;11.936;2023-05-21T14:15:03;28.41;45.78
62476;DHT22;50739;45.670;11.936;2023-05-21T14:20:08;29.29;42.32
62476;DHT22;50739;45.670;11.936;2023-05-21T14:25:10;30.06;40.39
62476;DHT22;50739;45.670;11.936;2023-05-21T14:30:13;30.26;39.36
62476;DHT22;50739;45.670;11.936;2023-05-21T14:35:16;29.06;42.11
62476;DHT22;50739;45.670;11.936;2023-05-21T14:40:19;29.71;41.63
62476;DHT22;50739;45.670;11.936;2023-05-21T15:03:02;31.32;38.66
62476;DHT22;50739;45.670;11.936;2023-05-21T15:08:05;31.51;38.43
62476;DHT22;50739;45.670;11.936;2023-05-21T15:13:09;31.66;38.46
62476;DHT22;50739;45.670;11.936;2023-05-21T15:18:13;32.07;38.84
62476;DHT22;50739;45.670;11.936;2023-05-21T15:23:15;31.73;39.16
62476;DHT22;50739;45.670;11.936;2023-05-21T15:28:18;31.40;39.36
62476;DHT22;50739;45.670;11.936;2023-05-21T15:33:22;30.57;41.09
62476;DHT22;50739;45.670;11.936;2023-05-21T15:38:24;30.63;41.37
62476;DHT22;50739;45.670;11.936;2023-05-21T15:43:26;30.77;41.71
62476;DHT22;50739;45.670;11.936;2023-05-21T15:48:30;30.95;40.71
62476;DHT22;50739;45.670;11.936;2023-05-21T15:53:32;30.88;40.26
62476;DHT22;50739;45.670;11.936;2023-05-21T15:58:35;30.73;42.24
62476;DHT22;50739;45.670;11.936;2023-05-21T16:03:39;30.77;41.06
62476;DHT22;50739;45.670;11.936;2023-05-21T16:08:41;30.43;41.46
62476;DHT22;50739;45.670;11.936;2023-05-21T16:13:43;30.41;41.86
62476;DHT22;50739;45.670;11.936;2023-05-21T16:18:47;30.41;42.49
62476;DHT22;50739;45.670;11.936;2023-05-21T16:23:49;30.13;43.76
62476;DHT22;50739;45.670;11.936;2023-05-21T16:28:52;30.08;42.74
62476;DHT22;50739;45.670;11.936;2023-05-21T16:33:56;29.93;44.02
62476;DHT22;50739;45.670;11.936;2023-05-21T16:38:58;29.86;44.36
62476;DHT22;50739;45.670;11.936;2023-05-21T16:44:00;29.78;43.91
62476;DHT22;50739;45.670;11.936;2023-05-21T16:49:04;29.65;43.70
62476;DHT22;50739;45.670;11.936;2023-05-21T16:54:06;29.44;45.04
62476;DHT22;50739;45.670;11.936;2023-05-21T16:59:09;29.22;45.05
62476;DHT22;50739;45.670;11.936;2023-05-21T17:04:12;29.02;45.14
62476;DHT22;50739;45.670;11.936;2023-05-21T17:09:14;28.79;45.49
62476;DHT22;50739;45.670;11.936;2023-05-21T17:14:17;28.55;46.09
62476;DHT22;50739;45.670;11.936;2023-05-21T17:19:20;28.50;45.72
62476;DHT22;50739;45.670;11.936;2023-05-21T17:24:23;28.40;46.44
62476;DHT22;50739;45.670;11.936;2023-05-21T17:29:25;28.07;46.86
62476;DHT22;50739;45.670;11.936;2023-05-21T17:34:29;27.69;47.40
62476;DHT22;50739;45.670;11.936;2023-05-21T17:39:31;27.45;48.64
62476;DHT22;50739;45.670;11.936;2023-05-21T17:44:33;27.33;48.42
62476;DHT22;50739;45.670;11.936;2023-05-21T17:49:37;27.17;49.04
62476;DHT22;50739;45.670;11.936;2023-05-21T17:54:39;27.07;49.39
62476;DHT22;50739;45.670;11.936;2023-05-21T17:59:42;26.80;49.84
62476;DHT22;50739;45.670;11.936;2023-05-21T18:04:46;26.69;50.96
62476;DHT22;50739;45.670;11.936;2023-05-21T18:09:49;26.57;51.44
62476;DHT22;50739;45.670;11.936;2023-05-21T18:14:51;26.29;53.03
62476;DHT22;50739;45.670;11.936;2023-05-21T18:19:54;26.20;52.88
62476;DHT22;50739;45.670;11.936;2023-05-21T18:24:57;26.07;52.98
62476;DHT22;50739;45.670;11.936;2023-05-21T18:29:59;25.96;53.42
62476;DHT22;50739;45.670;11.936;2023-05-21T18:35:05;25.83;53.90
62476;DHT22;50739;45.670;11.936;2023-05-21T18:40:08;25.67;54.20
62476;DHT22;50739;45.670;11.936;2023-05-21T18:45:11;25.36;55.85
62476;DHT22;50739;45.670;11.936;2023-05-21T18:50:15;25.10;57.44
62476;DHT22;50739;45.670;11.936;2023-05-21T18:55:19;24.84;58.32
62476;DHT22;50739;45.670;11.936;2023-05-21T19:00:21;24.94;58.09
62476;DHT22;50739;45.670;11.936;2023-05-21T19:05:25;24.77;58.37
62476;DHT22;50739;45.670;11.936;2023-05-21T19:10:28;24.64;58.53
62476;DHT22;50739;45.670;11.936;2023-05-21T19:15:32;24.61;57.67
62476;DHT22;50739;45.670;11.936;2023-05-21T19:20:35;24.56;57.46
62476;DHT22;50739;45.670;11.936;2023-05-21T19:25:38;24.39;58.02
62476;DHT22;50739;45.670;11.936;2023-05-21T19:30:40;24.28;58.37
62476;DHT22;50739;45.670;11.936;2023-05-21T19:35:44;24.26;58.48
62476;DHT22;50739;45.670;11.936;2023-05-21T19:40:48;24.25;59.06
62476;DHT22;50739;45.670;11.936;2023-05-21T19:45:50;24.16;59.18
62476;DHT22;50739;45.670;11.936;2023-05-21T19:50:54;24.06;59.92
62476;DHT22;50739;45.670;11.936;2023-05-21T19:55:56;24.00;59.70
62476;DHT22;50739;45.670;11.936;2023-05-21T20:00:59;23.82;60.27
62476;DHT22;50739;45.670;11.936;2023-05-21T20:06:04;23.75;60.43
62476;DHT22;50739;45.670;11.936;2023-05-21T20:11:07;23.70;60.86
62476;DHT22;50739;45.670;11.936;2023-05-21T20:16:09;23.64;61.15
62476;DHT22;50739;45.670;11.936;2023-05-21T20:21:14;23.50;61.40
62476;DHT22;50739;45.670;11.936;2023-05-21T20:26:17;23.45;61.48
62476;DHT22;50739;45.670;11.936;2023-05-21T20:31:20;23.32;62.28
62476;DHT22;50739;45.670;11.936;2023-05-21T20:36:24;23.23;62.27
62476;DHT22;50739;45.670;11.936;2023-05-21T20:41:27;23.11;62.27
62476;DHT22;50739;45.670;11.936;2023-05-21T20:46:37;23.01;61.64
62476;DHT22;50739;45.670;11.936;2023-05-21T20:51:42;23.02;61.41
62476;DHT22;50739;45.670;11.936;2023-05-21T20:56:44;22.98;61.44
62476;DHT22;50739;45.670;11.936;2023-05-21T21:01:47;23.15;60.88
62476;DHT22;50739;45.670;11.936;2023-05-21T21:06:51;22.96;61.46
62476;DHT22;50739;45.670;11.936;2023-05-21T21:11:55;22.75;61.81
62476;DHT22;50739;45.670;11.936;2023-05-21T21:17:00;22.90;60.83
62476;DHT22;50739;45.670;11.936;2023-05-21T21:22:04;23.02;60.51
62476;DHT22;50739;45.670;11.936;2023-05-21T21:27:06;23.08;60.35
62476;DHT22;50739;45.670;11.936;2023-05-21T21:32:09;22.95;60.45
62476;DHT22;50739;45.670;11.936;2023-05-21T21:37:12;22.98;60.77
62476;DHT22;50739;45.670;11.936;2023-05-21T21:42:15;22.91;60.65
62476;DHT22;50739;45.670;11.936;2023-05-21T21:47:17;23.24;59.82
62476;DHT22;50739;45.670;11.936;2023-05-21T21:52:21;23.11;60.30
62476;DHT22;50739;45.670;11.936;2023-05-21T21:57:27;23.13;59.64
62476;DHT22;50739;45.670;11.936;2023-05-21T22:02:29;23.22;59.79
62476;DHT22;50739;45.670;11.936;2023-05-21T22:07:33;23.36;58.79
62476;DHT22;50739;45.670;11.936;2023-05-21T22:12:38;23.30;58.84
62476;DHT22;50739;45.670;11.936;2023-05-21T22:17:41;23.20;59.59
62476;DHT22;50739;45.670;11.936;2023-05-21T22:22:44;23.05;60.52
62476;DHT22;50739;45.670;11.936;2023-05-21T22:27:47;23.05;59.89
62476;DHT22;50739;45.670;11.936;2023-05-21T22:32:50;22.99;60.13
62476;DHT22;50739;45.670;11.936;2023-05-21T22:37:53;22.91;60.34
62476;DHT22;50739;45.670;11.936;2023-05-21T22:42:56;22.96;60.37
62476;DHT22;50739;45.670;11.936;2023-05-21T22:47:58;22.99;60.11
62476;DHT22;50739;45.670;11.936;2023-05-21T22:53:08;22.91;60.45
62476;DHT22;50739;45.670;11.936;2023-05-21T22:58:11;22.96;60.47
62476;DHT22;50739;45.670;11.936;2023-05-21T23:03:13;23.01;60.49
62476;DHT22;50739;45.670;11.936;2023-05-21T23:08:17;22.75;62.31
62476;DHT22;50739;45.670;11.936;2023-05-21T23:13:20;22.60;63.23
62476;DHT22;50739;45.670;11.936;2023-05-21T23:18:22;22.61;63.18
62476;DHT22;50739;45.670;11.936;2023-05-21T23:23:26;22.50;63.28
62476;DHT22;50739;45.670;11.936;2023-05-21T23:28:28;22.54;62.91
62476;DHT22;50739;45.670;11.936;2023-05-21T23:33:30;22.58;62.25
62476;DHT22;50739;45.670;11.936;2023-05-21T23:38:34;22.61;62.14
62476;DHT22;50739;45.670;11.936;2023-05-21T23:43:37;22.36;62.95
62476;DHT22;50739;45.670;11.936;2023-05-21T23:48:39;22.27;63.03
62476;DHT22;50739;45.670;11.936;2023-05-21T23:53:43;22.37;62.74
62476;DHT22;50739;45.670;11.936;2023-05-21T23:58:45;22.27;62.87
